Time;durP1;ratioP1;P1;durP2;ratioP2;P2;SDS_P1;SDS_P2;PMS_P1;PMS_P2;Temp;Humidity;BMP_temperature;BMP_pressure;BME280_temperature;BME280_humidity;BME280_pressure;Samples;Min_cycle;Max_cycle;Signal;HPM_P1;HPM_P2
2022/02/23 00:01:36;;;;;;;21.83;3.92;;;;;;;5.47;100.00;102286.94;5043340;28;20492;-73
2022/02/23 00:04:05;;;;;;;17.88;3.35;;;;;;;5.51;100.00;102297.56;5041584;28;20045;-73
2022/02/23 00:06:33;;;;;;;14.05;3.75;;;;;;;5.53;100.00;102289.63;5041922;28;20347;-73
2022/02/23 00:09:03;;;;;;;16.52;3.60;;;;;;;5.53;100.00;102297.56;5041342;28;20045;-74
2022/02/23 00:11:35;;;;;;;15.52;3.53;;;;;;;5.51;100.00;102301.97;5040021;28;20138;-73
2022/02/23 00:14:03;;;;;;;15.10;3.17;;;;;;;5.37;100.00;102297.38;5038592;28;20130;-74
2022/02/23 00:16:31;;;;;;;20.30;3.40;;;;;;;5.41;100.00;102299.22;5039263;28;20045;-73
2022/02/23 00:18:59;;;;;;;19.58;3.78;;;;;;;5.39;100.00;102308.88;5043604;28;21855;-73
2022/02/23 00:21:27;;;;;;;28.63;4.88;;;;;;;5.37;100.00;102313.28;5039147;28;20156;-74
2022/02/23 00:23:55;;;;;;;13.15;3.50;;;;;;;5.41;100.00;102317.75;5043157;28;20132;-75
2022/02/23 00:26:24;;;;;;;15.75;3.78;;;;;;;5.42;100.00;102327.44;5041628;28;20041;-74
2022/02/23 00:28:52;;;;;;;19.90;3.55;;;;;;;5.48;100.00;102325.75;5043035;28;20045;-73
2022/02/23 00:31:19;;;;;;;12.63;3.67;;;;;;;5.40;100.00;102325.66;5039998;28;20119;-73
2022/02/23 00:33:47;;;;;;;18.48;3.25;;;;;;;5.39;100.00;102330.06;5037610;28;20077;-73
2022/02/23 00:36:16;;;;;;;17.13;3.67;;;;;;;5.41;100.00;102327.44;5036830;28;20565;-74
2022/02/23 00:38:45;;;;;;;10.05;3.42;;;;;;;5.32;100.00;102335.25;5037651;28;20553;-74
2022/02/23 00:41:12;;;;;;;12.32;3.88;;;;;;;5.38;100.00;102336.25;5036882;28;20068;-73
2022/02/23 00:43:41;;;;;;;9.63;3.28;;;;;;;5.32;100.00;102332.63;5037132;28;20051;-75
2022/02/23 00:46:09;;;;;;;13.02;3.13;;;;;;;5.22;100.00;102334.25;5038345;28;20123;-73
2022/02/23 00:48:37;;;;;;;16.90;3.10;;;;;;;5.30;100.00;102334.34;5037623;28;20135;-72
2022/02/23 00:51:07;;;;;;;18.63;3.47;;;;;;;5.33;100.00;102329.09;5040926;28;20479;-73
2022/02/23 00:53:35;;;;;;;12.02;3.15;;;;;;;5.29;100.00;102329.91;5032972;28;20485;-73
2022/02/23 00:56:03;;;;;;;10.45;2.67;;;;;;;5.26;100.00;102336.09;5036255;28;20095;-73
2022/02/23 00:58:56;;;;;;;12.93;3.17;;;;;;;5.24;100.00;102335.13;5038720;28;20109;-73
2022/02/23 01:01:24;;;;;;;13.02;2.75;;;;;;;5.36;100.00;102335.34;5037719;28;20168;-74
2022/02/23 01:03:51;;;;;;;17.23;3.47;;;;;;;5.27;100.00;102329.03;5038924;28;20118;-73
2022/02/23 01:06:20;;;;;;;22.10;4.50;;;;;;;5.16;100.00;102342.09;5036405;28;20260;-73
2022/02/23 01:08:47;;;;;;;9.15;2.63;;;;;;;5.12;100.00;102345.56;5037951;28;20049;-72
2022/02/23 01:11:19;;;;;;;8.25;3.35;;;;;;;5.13;100.00;102347.34;5038777;28;20159;-72
2022/02/23 01:13:47;;;;;;;9.70;3.35;;;;;;;5.07;100.00;102360.47;5042443;28;20049;-73
2022/02/23 01:16:18;;;;;;;8.55;2.35;;;;;;;5.08;100.00;102360.50;5037963;28;20064;-72
2022/02/23 01:18:46;;;;;;;14.65;3.25;;;;;;;5.18;100.00;102354.47;5039254;28;20103;-75
2022/02/23 01:21:14;;;;;;;15.35;3.38;;;;;;;5.21;100.00;102366.84;5036309;28;20297;-73
2022/02/23 01:23:42;;;;;;;13.75;3.28;;;;;;;5.10;100.00;102368.47;5039531;28;20121;-73
2022/02/23 01:26:10;;;;;;;14.98;3.25;;;;;;;5.08;100.00;102354.34;5037765;28;20352;-73
2022/02/23 01:28:39;;;;;;;15.82;3.38;;;;;;;4.95;100.00;102361.19;5038159;28;20045;-73
2022/02/23 01:31:07;;;;;;;14.23;2.85;;;;;;;5.04;100.00;102362.22;5040884;28;20137;-73
2022/02/23 01:33:36;;;;;;;9.85;2.72;;;;;;;5.03;100.00;102367.50;5036031;28;20118;-72
2022/02/23 01:36:04;;;;;;;19.17;3.72;;;;;;;4.99;100.00;102370.97;5044766;28;20085;-73
2022/02/23 01:38:33;;;;;;;17.50;3.58;;;;;;;4.98;100.00;102378.00;5039328;28;20082;-72
2022/02/23 01:41:01;;;;;;;12.82;3.63;;;;;;;4.92;100.00;102372.63;5040098;28;20045;-73
2022/02/23 01:43:30;;;;;;;15.07;3.55;;;;;;;5.03;100.00;102378.06;5035096;28;20102;-72
2022/02/23 01:45:58;;;;;;;12.13;2.92;;;;;;;4.99;100.00;102386.84;5039104;28;20405;-72
2022/02/23 01:48:26;;;;;;;18.77;3.70;;;;;;;4.91;100.00;102386.69;5038738;28;20090;-73
2022/02/23 01:50:56;;;;;;;14.40;3.47;;;;;;;4.86;100.00;102391.91;5037369;28;20041;-73
2022/02/23 01:53:24;;;;;;;12.90;3.35;;;;;;;4.88;100.00;102393.69;5036108;28;20060;-73
2022/02/23 01:55:52;;;;;;;13.80;3.42;;;;;;;4.79;100.00;102399.72;5038644;28;20037;-72
2022/02/23 01:58:20;;;;;;;11.45;2.83;;;;;;;4.90;100.00;102399.91;5038327;28;20178;-73
2022/02/23 02:00:47;;;;;;;16.65;4.25;;;;;;;4.91;100.00;102393.75;5033947;28;20071;-73
2022/02/23 02:03:16;;;;;;;13.40;3.25;;;;;;;4.78;100.00;102398.81;5036782;28;20053;-72
2022/02/23 02:05:43;;;;;;;10.70;3.08;;;;;;;4.82;100.00;102400.66;5038616;28;20055;-73
2022/02/23 02:08:13;;;;;;;15.05;3.35;;;;;;;4.83;100.00;102406.84;5037136;28;20053;-73
2022/02/23 02:10:41;;;;;;;19.00;4.35;;;;;;;4.73;100.00;102415.47;5040321;28;20121;-73
2022/02/23 02:13:09;;;;;;;12.88;3.13;;;;;;;4.64;100.00;102417.09;5039492;28;20045;-73
2022/02/23 02:15:37;;;;;;;16.65;3.40;;;;;;;4.61;100.00;102418.81;5038430;28;20220;-73
2022/02/23 02:18:05;;;;;;;17.63;4.07;;;;;;;4.54;100.00;102419.56;5037789;28;20469;-73
2022/02/23 02:20:33;;;;;;;18.75;4.22;;;;;;;4.51;100.00;102422.16;5039609;28;20072;-73
2022/02/23 02:23:02;;;;;;;16.40;3.75;;;;;;;4.52;100.00;102418.66;5038891;28;20045;-73
2022/02/23 02:25:30;;;;;;;16.73;3.92;;;;;;;4.48;100.00;102421.22;5037265;28;20064;-73
2022/02/23 02:27:58;;;;;;;10.77;3.22;;;;;;;4.38;100.00;102416.63;5040464;28;20484;-73
2022/02/23 02:30:26;;;;;;;17.25;3.53;;;;;;;4.33;100.00;102415.66;5038959;28;20041;-73
2022/02/23 02:32:54;;;;;;;11.65;4.10;;;;;;;4.39;100.00;102409.59;5034989;28;20135;-73
2022/02/23 02:35:22;;;;;;;15.65;3.92;;;;;;;4.32;100.00;102413.88;5036468;28;20312;-73
2022/02/23 02:37:50;;;;;;;12.70;3.35;;;;;;;4.25;100.00;102417.25;5041769;28;20052;-74
2022/02/23 02:40:21;;;;;;;13.70;3.58;;;;;;;4.21;100.00;102418.97;5040541;28;20060;-73
2022/02/23 02:42:49;;;;;;;13.40;4.25;;;;;;;4.21;100.00;102424.25;5036569;28;20067;-74
2022/02/23 02:45:18;;;;;;;15.63;3.67;;;;;;;4.15;100.00;102423.22;5039739;28;20131;-73
2022/02/23 02:47:46;;;;;;;12.50;3.00;;;;;;;4.17;100.00;102427.69;5036982;28;20132;-73
2022/02/23 02:50:13;;;;;;;11.30;3.53;;;;;;;4.05;100.00;102427.44;5038530;28;20067;-74
2022/02/23 02:52:41;;;;;;;16.40;3.72;;;;;;;4.00;100.00;102427.38;5034682;28;20099;-74
2022/02/23 02:55:10;;;;;;;16.20;2.97;;;;;;;4.00;100.00;102424.72;5036905;28;20500;-73
2022/02/23 02:57:39;;;;;;;19.40;3.20;;;;;;;3.95;100.00;102425.47;5037614;28;20143;-73
2022/02/23 03:00:10;;;;;;;10.63;3.80;;;;;;;3.88;100.00;102424.44;5032852;28;20090;-73
2022/02/23 03:02:38;;;;;;;9.90;3.10;;;;;;;3.84;100.00;102434.06;5036869;28;20061;-73
2022/02/23 03:05:07;;;;;;;13.70;3.33;;;;;;;3.86;100.00;102436.72;5035043;28;20057;-72
2022/02/23 03:07:35;;;;;;;11.38;3.03;;;;;;;3.89;100.00;102440.31;5038833;28;20132;-72
2022/02/23 03:10:03;;;;;;;11.27;3.03;;;;;;;3.81;100.00;102433.09;5035643;28;20489;-72
2022/02/23 03:12:31;;;;;;;12.23;2.80;;;;;;;3.82;100.00;102437.53;5039679;28;20199;-73
2022/02/23 03:15:01;;;;;;;10.82;2.80;;;;;;;3.86;100.00;102444.66;5038041;28;20056;-73
2022/02/23 03:17:30;;;;;;;13.98;3.55;;;;;;;3.97;100.00;102448.44;5035266;28;20049;-73
2022/02/23 03:19:59;;;;;;;9.27;2.92;;;;;;;3.84;100.00;102451.66;5039762;28;20320;-73
2022/02/23 03:22:29;;;;;;;17.15;5.30;;;;;;;3.80;100.00;102455.06;5043106;28;20087;-73
2022/02/23 03:25:00;;;;;;;18.05;3.97;;;;;;;3.77;100.00;102455.03;5038026;28;20469;-73
2022/02/23 03:27:29;;;;;;;10.48;3.38;;;;;;;3.66;100.00;102466.25;5036650;28;20570;-73
2022/02/23 03:29:57;;;;;;;12.60;3.25;;;;;;;3.53;100.00;102465.06;5034899;28;20099;-74
2022/02/23 03:32:26;;;;;;;22.02;3.38;;;;;;;3.49;100.00;102468.50;5041041;28;20584;-73
2022/02/23 03:34:55;;;;;;;17.52;3.63;;;;;;;3.43;100.00;102460.44;5040468;28;20053;-73
2022/02/23 03:37:24;;;;;;;10.35;2.90;;;;;;;3.37;100.00;102462.91;5042147;28;20049;-73
2022/02/23 03:39:51;;;;;;;10.23;3.25;;;;;;;3.44;100.00;102461.31;5042525;28;20265;-73
2022/02/23 03:42:23;;;;;;;9.38;3.53;;;;;;;3.35;100.00;102452.34;5041984;28;20186;-73
2022/02/23 03:44:51;;;;;;;10.65;2.65;;;;;;;3.37;100.00;102468.19;5038030;28;20511;-74
2022/02/23 03:47:19;;;;;;;9.82;3.72;;;;;;;3.31;100.00;102465.44;5040200;28;20086;-74
2022/02/23 03:50:12;;;;;;;11.60;2.83;;;;;;;3.26;100.00;102472.34;5042152;28;20047;-73
2022/02/23 03:52:41;;;;;;;16.90;2.90;;;;;;;3.20;100.00;102474.81;5039091;28;20257;-73
2022/02/23 03:55:10;;;;;;;12.48;2.90;;;;;;;3.10;100.00;102474.59;5042201;28;20136;-73
2022/02/23 03:57:40;;;;;;;8.85;2.75;;;;;;;3.19;100.00;102484.50;5038760;28;20066;-74
2022/02/23 04:00:12;;;;;;;7.63;2.78;;;;;;;3.07;100.00;102481.56;5040725;28;20114;-74
2022/02/23 04:02:43;;;;;;;10.98;2.88;;;;;;;3.10;100.00;102484.25;5038672;28;20102;-73
2022/02/23 04:05:12;;;;;;;14.43;3.88;;;;;;;3.05;100.00;102492.06;5040683;28;20135;-73
2022/02/23 04:07:43;;;;;;;17.77;3.85;;;;;;;3.10;100.00;102493.06;5039298;28;20053;-73
2022/02/23 04:10:11;;;;;;;8.63;3.30;;;;;;;3.09;100.00;102493.03;5041124;28;20734;-73
2022/02/23 04:12:38;;;;;;;11.23;3.25;;;;;;;3.06;100.00;102503.50;5039802;28;20084;-73
2022/02/23 04:15:07;;;;;;;15.63;3.58;;;;;;;3.01;100.00;102502.47;5038230;28;20053;-73
2022/02/23 04:18:00;;;;;;;10.30;3.17;;;;;;;2.94;100.00;102494.41;5037887;28;20532;-73
2022/02/23 04:20:30;;;;;;;11.65;3.25;;;;;;;2.92;100.00;102509.31;5044292;28;20239;-73
2022/02/23 04:23:00;;;;;;;11.00;3.90;;;;;;;2.94;100.00;102506.72;5040814;28;20052;-73
2022/02/23 04:25:29;;;;;;;15.18;3.90;;;;;;;2.93;100.00;102505.81;5039723;28;20380;-73
2022/02/23 04:27:57;;;;;;;12.88;3.75;;;;;;;2.88;100.00;102504.81;5038854;28;20049;-74
2022/02/23 04:30:26;;;;;;;14.35;3.70;;;;;;;2.89;100.00;102509.22;5042053;28;20115;-72
2022/02/23 04:32:55;;;;;;;7.95;3.10;;;;;;;2.80;100.00;102507.22;5038503;28;20064;-72
2022/02/23 04:35:23;;;;;;;14.35;3.65;;;;;;;2.90;100.00;102510.13;5040135;28;20118;-72
2022/02/23 04:37:52;;;;;;;10.05;2.83;;;;;;;2.80;100.00;102501.06;5038876;28;20053;-71
2022/02/23 04:40:20;;;;;;;13.15;4.53;;;;;;;2.80;100.00;102499.31;5039381;28;20060;-73
2022/02/23 04:42:48;;;;;;;13.40;3.47;;;;;;;2.86;100.00;102498.63;5036430;28;20134;-73
2022/02/23 04:45:16;;;;;;;16.83;3.63;;;;;;;3.03;100.00;102506.03;5040314;28;20132;-73
2022/02/23 04:47:44;;;;;;;11.07;2.97;;;;;;;3.13;100.00;102498.44;5039921;28;20053;-73
2022/02/23 04:50:12;;;;;;;12.82;3.30;;;;;;;3.13;100.00;102506.34;5038875;28;20504;-74
2022/02/23 04:52:40;;;;;;;15.68;3.65;;;;;;;3.17;100.00;102515.22;5036256;28;20063;-71
2022/02/23 04:55:10;;;;;;;16.40;3.38;;;;;;;3.07;100.00;102502.66;5039241;28;20135;-72
2022/02/23 04:57:38;;;;;;;14.88;3.97;;;;;;;3.04;100.00;102506.09;5036220;28;20396;-72
2022/02/23 05:00:07;;;;;;;11.70;3.20;;;;;;;3.10;100.00;102505.34;5041995;28;20049;-72
2022/02/23 05:02:35;;;;;;;9.60;3.40;;;;;;;3.05;100.00;102504.34;5039494;28;20486;-72
2022/02/23 05:05:03;;;;;;;14.35;3.65;;;;;;;3.03;100.00;102512.25;5038265;28;20109;-72
2022/02/23 05:07:31;;;;;;;12.15;3.85;;;;;;;3.10;100.00;102510.63;5040407;28;20078;-72
2022/02/23 05:10:03;;;;;;;9.25;3.58;;;;;;;3.08;100.00;102520.25;5042147;28;20140;-72
2022/02/23 05:12:35;;;;;;;9.35;3.30;;;;;;;2.97;100.00;102522.63;5044163;28;20068;-73
2022/02/23 05:15:06;;;;;;;14.40;3.90;;;;;;;2.89;100.00;102518.88;5039186;28;20059;-74
2022/02/23 05:17:34;;;;;;;16.30;3.80;;;;;;;2.78;100.00;102522.13;5041871;28;20760;-71
2022/02/23 05:20:07;;;;;;;14.20;3.65;;;;;;;2.66;100.00;102524.44;5038200;28;20048;-71
2022/02/23 05:22:35;;;;;;;8.07;3.45;;;;;;;2.64;100.00;102523.50;5037685;28;20067;-73
2022/02/23 05:25:07;;;;;;;17.33;3.70;;;;;;;2.60;100.00;102521.63;5037042;28;20079;-72
2022/02/23 05:27:37;;;;;;;17.17;3.70;;;;;;;2.55;100.00;102528.50;5040452;28;20136;-73
2022/02/23 05:30:10;;;;;;;11.77;3.80;;;;;;;2.46;100.00;102538.81;5037160;28;20400;-72
2022/02/23 05:32:42;;;;;;;14.48;4.70;;;;;;;2.37;100.00;102540.31;5038221;28;20822;-71
2022/02/23 05:35:11;;;;;;;17.98;3.72;;;;;;;2.32;100.00;102541.03;5036317;28;20041;-72
2022/02/23 05:37:39;;;;;;;7.93;3.58;;;;;;;2.27;100.00;102545.28;5039577;28;20059;-74
2022/02/23 05:40:09;;;;;;;17.33;4.15;;;;;;;2.30;100.00;102541.00;5039592;28;20544;-73
2022/02/23 05:42:41;;;;;;;14.43;4.03;;;;;;;2.26;100.00;102539.09;5036217;28;20045;-73
2022/02/23 05:45:11;;;;;;;12.30;3.40;;;;;;;2.24;100.00;102538.16;5040138;28;20511;-71
2022/02/23 05:47:44;;;;;;;16.05;4.35;;;;;;;2.24;100.00;102544.31;5036691;28;20107;-72
2022/02/23 05:50:13;;;;;;;16.27;3.47;;;;;;;2.32;100.00;102539.28;5035165;28;20493;-72
2022/02/23 05:53:05;;;;;;;18.10;4.93;;;;;;;2.36;100.00;102549.06;5037108;28;20102;-72
2022/02/23 05:55:33;;;;;;;17.33;4.97;;;;;;;2.39;100.00;102543.88;5034581;28;20114;-72
2022/02/23 05:58:02;;;;;;;18.60;4.00;;;;;;;2.40;100.00;102547.41;5040441;28;20375;-72
2022/02/23 06:00:33;;;;;;;11.95;4.05;;;;;;;2.41;100.00;102536.91;5035882;28;20579;-71
2022/02/23 06:03:07;;;;;;;12.75;3.78;;;;;;;2.40;100.00;102539.50;5036887;28;20492;-72
2022/02/23 06:05:37;;;;;;;16.83;3.50;;;;;;;2.46;100.00;102541.44;5040068;28;20049;-72
2022/02/23 06:08:08;;;;;;;10.90;3.88;;;;;;;2.46;100.00;102538.81;5038633;28;20076;-70
2022/02/23 06:10:36;;;;;;;15.88;3.88;;;;;;;2.42;100.00;102538.69;5038812;28;20143;-72
2022/02/23 06:13:10;;;;;;;13.02;3.22;;;;;;;2.43;100.00;102553.69;5039967;28;20079;-71
2022/02/23 06:16:03;;;;;;;11.02;3.17;;;;;;;2.45;100.00;102553.69;5037141;28;20056;-71
2022/02/23 06:18:33;;;;;;;9.63;3.58;;;;;;;2.44;100.00;102546.66;5040319;28;20055;-71
2022/02/23 06:21:02;;;;;;;16.95;3.83;;;;;;;2.45;100.00;102550.16;5040533;28;20687;-72
2022/02/23 06:23:30;;;;;;;12.70;4.03;;;;;;;2.54;100.00;102545.19;5038704;28;20059;-72
2022/02/23 06:25:58;;;;;;;11.60;4.28;;;;;;;2.58;100.00;102536.50;5034274;28;21209;-71
2022/02/23 06:28:38;;;;;;;15.82;3.30;;;;;;;2.54;100.00;102546.06;5039616;28;20053;-72
2022/02/23 06:31:07;;;;;;;18.42;4.72;;;;;;;2.63;100.00;102547.19;5039486;28;20056;-73
2022/02/23 06:33:35;;;;;;;18.55;3.65;;;;;;;2.64;100.00;102548.94;5036881;28;20048;-74
2022/02/23 06:36:03;;;;;;;15.25;4.68;;;;;;;2.71;100.00;102550.94;5039390;28;20053;-74
2022/02/23 06:38:31;;;;;;;15.05;3.08;;;;;;;2.79;100.00;102550.28;5041208;28;20048;-72
2022/02/23 06:41:01;;;;;;;15.30;3.92;;;;;;;2.84;100.00;102558.28;5040536;28;20476;-72
2022/02/23 06:43:31;;;;;;;12.73;3.28;;;;;;;2.77;100.00;102551.97;5036136;28;20045;-72
2022/02/23 06:46:02;;;;;;;15.38;4.22;;;;;;;2.75;100.00;102555.41;5035438;28;20052;-73
2022/02/23 06:48:32;;;;;;;18.10;3.67;;;;;;;2.77;100.00;102553.72;5038609;28;20108;-71
2022/02/23 06:51:00;;;;;;;14.85;4.03;;;;;;;2.84;100.00;102558.28;5037638;28;20511;-72
2022/02/23 06:53:28;;;;;;;14.02;4.22;;;;;;;2.75;100.00;102552.78;5034360;28;20064;-72
2022/02/23 06:55:56;;;;;;;15.25;3.15;;;;;;;2.78;100.00;102550.25;5039100;28;20115;-72
2022/02/23 06:58:24;;;;;;;12.68;4.25;;;;;;;2.77;100.00;102554.59;5035849;28;20049;-72
2022/02/23 07:00:53;;;;;;;16.50;3.58;;;;;;;2.79;100.00;102546.72;5038552;28;20279;-72
2022/02/23 07:03:21;;;;;;;15.50;4.22;;;;;;;2.78;100.00;102550.25;5040464;28;20049;-71
2022/02/23 07:05:49;;;;;;;15.23;3.17;;;;;;;2.76;100.00;102538.78;5037906;28;20048;-72
2022/02/23 07:08:17;;;;;;;14.80;3.63;;;;;;;2.72;100.00;102547.41;5040223;28;20071;-72
2022/02/23 07:10:45;;;;;;;13.60;4.22;;;;;;;-145.73;100.00;61044.97;5039741;28;20140;-71
2022/02/23 07:13:12;;;;;;;15.73;4.82;;;;;;;-145.73;100.00;61044.97;5039661;28;20080;-71
2022/02/23 07:15:41;;;;;;;11.55;4.90;;;;;;;-145.73;100.00;61044.97;5044155;28;20088;-72
2022/02/23 07:18:10;;;;;;;11.52;4.78;;;;;;;-145.73;100.00;61044.97;5043835;28;20052;-72
2022/02/23 07:20:38;;;;;;;13.07;3.97;;;;;;;-145.73;100.00;61044.97;5042823;28;20131;-72
2022/02/23 07:23:06;;;;;;;17.25;4.13;;;;;;;-145.73;100.00;61044.97;5043944;28;20260;-72
2022/02/23 07:25:36;;;;;;;17.80;4.60;;;;;;;-145.73;100.00;61044.97;5037991;28;20094;-74
2022/02/23 07:28:05;;;;;;;16.65;4.32;;;;;;;-145.73;100.00;61044.97;5043185;28;20115;-72
2022/02/23 07:30:53;;;;;;;15.20;4.45;;;;;;;-145.73;100.00;61044.97;5043317;28;20076;-73
2022/02/23 07:33:24;;;;;;;10.05;3.58;;;;;;;-145.73;100.00;61044.97;5042111;28;20102;-74
2022/02/23 07:35:53;;;;;;;19.75;4.75;;;;;;;-145.73;100.00;61044.97;5038418;28;20351;-74
2022/02/23 07:38:21;;;;;;;15.48;4.28;;;;;;;-145.73;100.00;61044.97;5037925;28;20091;-73
2022/02/23 07:40:49;;;;;;;17.13;5.15;;;;;;;-145.73;100.00;61044.97;5037310;28;20064;-72
2022/02/23 07:43:37;;;;;;;22.30;4.63;;;;;;;-145.73;100.00;61044.97;5042282;28;20052;-72
2022/02/23 07:46:05;;;;;;;23.27;4.88;;;;;;;-145.73;100.00;61044.97;5041627;28;20080;-72
2022/02/23 07:48:38;;;;;;;16.48;4.00;;;;;;;-145.73;100.00;61044.97;5033483;28;20124;-72
2022/02/23 07:51:06;;;;;;;20.08;5.57;;;;;;;-145.73;100.00;61044.97;5043212;28;20727;-71
2022/02/23 07:53:34;;;;;;;19.05;4.60;;;;;;;-145.73;100.00;61044.97;5038117;28;20082;-70
2022/02/23 07:56:03;;;;;;;16.20;5.72;;;;;;;-145.73;100.00;61044.97;5044514;28;20061;-71
2022/02/23 07:58:32;;;;;;;25.17;6.32;;;;;;;-145.73;100.00;61044.97;5039911;28;20068;-71
2022/02/23 08:01:00;;;;;;;22.13;6.47;;;;;;;-145.73;100.00;61044.97;5043034;28;20553;-74
2022/02/23 08:03:28;;;;;;;21.42;6.15;;;;;;;-145.73;100.00;61044.97;5040021;28;20376;-73
2022/02/23 08:05:58;;;;;;;23.15;5.63;;;;;;;-145.73;100.00;61044.97;5039240;28;20044;-73
2022/02/23 08:08:26;;;;;;;18.85;5.10;;;;;;;-145.73;100.00;61044.97;5039127;28;20040;-74
2022/02/23 08:10:54;;;;;;;21.70;5.53;;;;;;;-145.73;100.00;61044.97;5039640;28;20049;-71
2022/02/23 08:13:22;;;;;;;23.63;5.05;;;;;;;-145.73;100.00;61044.97;5044393;28;20053;-72
2022/02/23 08:21:22;;;;;;;19.15;5.80;;;;;;;-145.73;100.00;61044.97;5038047;28;20049;-71
2022/02/23 08:23:51;;;;;;;17.98;5.72;;;;;;;-145.73;100.00;61044.97;5039348;28;20055;-73
2022/02/23 08:26:19;;;;;;;23.05;6.10;;;;;;;-145.73;100.00;61044.97;5042161;28;21683;-72
2022/02/23 08:28:47;;;;;;;21.10;4.65;;;;;;;-145.73;100.00;61044.97;5039012;28;20377;-72
2022/02/23 08:31:15;;;;;;;28.17;5.82;;;;;;;-145.73;100.00;61044.97;5036543;28;20045;-71
2022/02/23 08:33:43;;;;;;;18.23;5.82;;;;;;;-145.73;100.00;61044.97;5041704;28;20154;-71
2022/02/23 08:36:11;;;;;;;21.45;5.97;;;;;;;-145.73;100.00;61044.97;5041581;28;20143;-70
2022/02/23 08:38:41;;;;;;;16.67;6.18;;;;;;;-145.73;100.00;61044.97;5042847;28;20053;-70
2022/02/23 08:41:11;;;;;;;24.13;5.47;;;;;;;-145.73;100.00;61044.97;5039063;28;20282;-69
2022/02/23 08:44:06;;;;;;;18.48;6.03;;;;;;;-145.73;100.00;61044.97;5038180;28;20052;-71
2022/02/23 08:46:35;;;;;;;18.08;5.13;;;;;;;-145.73;100.00;61044.97;5038631;28;20451;-71
2022/02/23 08:49:04;;;;;;;19.25;4.55;;;;;;;-145.73;100.00;61044.97;5043276;28;20110;-71
2022/02/23 08:51:32;;;;;;;18.73;4.68;;;;;;;-145.73;100.00;61044.97;5037938;28;20052;-70
2022/02/23 08:54:05;;;;;;;20.13;5.03;;;;;;;-145.73;100.00;61044.97;5038426;28;20049;-70
2022/02/23 08:56:33;;;;;;;14.70;4.10;;;;;;;-145.73;100.00;61044.97;5037559;28;20072;-70
2022/02/23 08:59:01;;;;;;;15.35;4.40;;;;;;;-145.73;100.00;61044.97;5044155;28;20190;-72
2022/02/23 09:01:29;;;;;;;15.15;4.15;;;;;;;-145.73;100.00;61044.97;5040429;28;20053;-72
2022/02/23 09:04:02;;;;;;;12.82;4.63;;;;;;;-145.73;100.00;61044.97;5036716;28;20048;-71
2022/02/23 09:06:32;;;;;;;19.70;4.88;;;;;;;-145.73;100.00;61044.97;5040018;28;20477;-70
2022/02/23 09:09:04;;;;;;;13.18;4.13;;;;;;;-145.73;100.00;61044.97;5040872;28;20045;-70
2022/02/23 09:11:32;;;;;;;14.95;4.25;;;;;;;-145.73;100.00;61044.97;5040039;28;20598;-69
2022/02/23 09:14:03;;;;;;;17.10;4.75;;;;;;;-145.73;100.00;61044.97;5036243;28;20139;-69
2022/02/23 09:16:32;;;;;;;18.88;4.93;;;;;;;-145.73;100.00;61044.97;5037487;28;20049;-71
2022/02/23 09:18:59;;;;;;;18.48;5.13;;;;;;;-145.73;100.00;61044.97;5039684;28;20045;-70
2022/02/23 09:21:28;;;;;;;16.23;4.32;;;;;;;-145.73;100.00;61044.97;5041824;28;20123;-69
2022/02/23 09:23:55;;;;;;;17.13;4.90;;;;;;;-145.73;100.00;61044.97;5038685;28;20140;-70
2022/02/23 09:26:25;;;;;;;15.88;4.70;;;;;;;-145.73;100.00;61044.97;5038276;28;20132;-70
2022/02/23 09:28:52;;;;;;;16.88;5.00;;;;;;;-145.73;100.00;61044.97;5034698;28;20076;-71
2022/02/23 09:31:21;;;;;;;16.02;5.57;;;;;;;-145.73;100.00;61044.97;5041363;28;20152;-71
2022/02/23 09:33:51;;;;;;;18.35;5.10;;;;;;;-145.73;100.00;61044.97;5041550;28;20429;-70
2022/02/23 09:36:19;;;;;;;15.70;5.18;;;;;;;-145.73;100.00;61044.97;5040970;28;20059;-72
2022/02/23 09:38:47;;;;;;;16.88;5.53;;;;;;;-145.73;100.00;61044.97;5039982;28;20063;-71
2022/02/23 09:41:18;;;;;;;17.83;5.22;;;;;;;-145.73;100.00;61044.97;5039885;28;20076;-69
2022/02/23 09:43:48;;;;;;;18.17;5.93;;;;;;;-145.73;100.00;61044.97;5040769;28;20076;-71
2022/02/23 09:46:20;;;;;;;21.02;5.85;;;;;;;-145.73;100.00;61044.97;5033272;28;20515;-71
2022/02/23 09:48:49;;;;;;;16.42;6.22;;;;;;;-145.73;100.00;61044.97;5035996;28;20516;-69
2022/02/23 09:51:17;;;;;;;18.80;5.03;;;;;;;-145.73;100.00;61044.97;5035290;28;20052;-71
2022/02/23 09:53:46;;;;;;;20.55;6.22;;;;;;;-145.73;100.00;61044.97;5035317;28;20199;-70
2022/02/23 09:56:15;;;;;;;15.70;5.45;;;;;;;-145.73;100.00;61044.97;5036057;28;20638;-69
2022/02/23 09:58:43;;;;;;;24.55;6.05;;;;;;;-145.73;100.00;61044.97;5035415;28;20370;-69
2022/02/23 10:01:14;;;;;;;13.98;5.15;;;;;;;-145.73;100.00;61044.97;5033178;28;20052;-69
2022/02/23 10:03:44;;;;;;;25.65;6.35;;;;;;;-145.73;100.00;61044.97;5034676;28;20063;-69
2022/02/23 10:06:28;;;;;;;17.35;4.63;;;;;;;-145.73;100.00;61044.97;5040864;28;20056;-70
2022/02/23 10:09:03;;;;;;;15.25;5.13;;;;;;;-145.73;100.00;61044.97;5037336;28;20913;-71
2022/02/23 10:11:32;;;;;;;13.25;4.40;;;;;;;-145.73;100.00;61044.97;5037031;28;20069;-69
2022/02/23 10:14:02;;;;;;;16.42;4.95;;;;;;;-145.73;100.00;61044.97;5038152;28;20134;-72
2022/02/23 10:16:35;;;;;;;14.02;4.85;;;;;;;-145.73;100.00;61044.97;5037323;28;20505;-69
2022/02/23 10:19:12;;;;;;;14.50;4.13;;;;;;;-145.73;100.00;61044.97;5036933;28;20143;-69
2022/02/23 10:21:52;;;;;;;13.10;4.55;;;;;;;-145.73;100.00;61044.97;5040644;28;20619;-69
2022/02/23 10:24:26;;;;;;;11.02;4.43;;;;;;;-145.73;100.00;61044.97;5038677;28;20132;-69
2022/02/23 10:27:07;;;;;;;11.18;4.70;;;;;;;-145.73;100.00;61044.97;5037233;28;20228;-69
2022/02/23 10:29:46;;;;;;;17.23;5.28;;;;;;;-145.73;100.00;61044.97;5037216;28;20171;-69
2022/02/23 10:32:16;;;;;;;14.73;4.40;;;;;;;-145.73;100.00;61044.97;5034654;28;20117;-68
2022/02/23 10:34:46;;;;;;;10.00;3.95;;;;;;;-145.73;100.00;61044.97;5035612;28;20513;-70
2022/02/23 10:37:17;;;;;;;12.82;4.30;;;;;;;-145.73;100.00;61044.97;5037905;28;20513;-70
2022/02/23 10:39:47;;;;;;;11.65;3.80;;;;;;;-145.73;100.00;61044.97;5038957;28;20071;-69
2022/02/23 10:42:16;;;;;;;13.32;4.28;;;;;;;-145.73;100.00;61044.97;5036141;28;20261;-69
2022/02/23 10:44:46;;;;;;;10.75;4.47;;;;;;;-145.73;100.00;61044.97;5034975;28;20048;-68
2022/02/23 10:47:24;;;;;;;14.27;4.57;;;;;;;-145.73;100.00;61044.97;5036322;28;20089;-70
2022/02/23 10:50:01;;;;;;;9.60;3.67;;;;;;;-145.73;100.00;61044.97;5037132;28;20052;-69
2022/02/23 10:52:31;;;;;;;15.13;5.72;;;;;;;-145.73;100.00;61044.97;5035669;28;20063;-69
2022/02/23 10:55:19;;;;;;;14.75;4.20;;;;;;;-145.73;100.00;61044.97;5037046;28;20378;-69
2022/02/23 10:57:49;;;;;;;14.93;4.40;;;;;;;-145.73;100.00;61044.97;5036164;28;20057;-69
2022/02/23 11:00:19;;;;;;;15.32;4.72;;;;;;;-145.73;100.00;61044.97;5034214;28;20087;-70
2022/02/23 11:02:50;;;;;;;14.48;4.65;;;;;;;-145.73;100.00;61044.97;5033768;28;20059;-69
2022/02/23 11:05:23;;;;;;;14.88;4.10;;;;;;;-145.73;100.00;61044.97;5039430;28;20041;-70
2022/02/23 11:07:52;;;;;;;11.85;4.28;;;;;;;-145.73;100.00;61044.97;5034154;28;20045;-68
2022/02/23 11:10:21;;;;;;;17.85;4.88;;;;;;;-145.73;100.00;61044.97;5037351;28;20280;-69
2022/02/23 11:12:50;;;;;;;12.55;4.00;;;;;;;-145.73;100.00;61044.97;5032454;28;20061;-70
2022/02/23 11:15:21;;;;;;;9.93;3.42;;;;;;;-145.73;100.00;61044.97;5037238;28;20051;-70
2022/02/23 11:17:51;;;;;;;10.02;3.42;;;;;;;-145.73;100.00;61044.97;5031121;28;20148;-68
2022/02/23 11:20:21;;;;;;;11.07;3.22;;;;;;;-145.73;100.00;61044.97;5036046;28;20453;-69
2022/02/23 11:22:53;;;;;;;15.77;4.68;;;;;;;-145.73;100.00;61044.97;5034756;28;20604;-69
2022/02/23 11:25:22;;;;;;;12.13;3.33;;;;;;;-145.73;100.00;61044.97;5036722;28;20164;-69
2022/02/23 11:27:57;;;;;;;15.70;4.03;;;;;;;-145.73;100.00;61044.97;5033275;28;20153;-69
2022/02/23 11:30:30;;;;;;;10.95;3.35;;;;;;;-145.73;100.00;61044.97;5039878;28;20057;-69